createdAt,value
2023-04-09T00:01:11.568Z,23.83
2023-04-09T00:03:39.191Z,24.83
2023-04-09T00:06:06.785Z,24.60
2023-04-09T00:08:33.626Z,22.70
2023-04-09T00:11:00.420Z,23.13
2023-04-09T00:13:38.388Z,26.25
2023-04-09T00:16:07.989Z,23.35
2023-04-09T00:18:35.652Z,23.65
2023-04-09T00:21:02.453Z,24.15
2023-04-09T00:23:29.243Z,23.27
2023-04-09T00:25:56.569Z,22.10
2023-04-09T00:28:23.397Z,20.92
2023-04-09T00:30:50.270Z,22.88
2023-04-09T00:33:17.064Z,23.70
2023-04-09T00:35:43.812Z,21.88
2023-04-09T00:38:10.577Z,23.15
2023-04-09T00:40:37.632Z,23.75
2023-04-09T00:43:04.439Z,23.40
2023-04-09T00:45:31.213Z,22.60
2023-04-09T00:47:58.006Z,21.67
2023-04-09T00:50:24.936Z,20.83
2023-04-09T00:52:52.370Z,22.75
2023-04-09T00:55:21.300Z,22.67
2023-04-09T00:57:48.099Z,21.92
2023-04-09T01:00:15.371Z,21.73
2023-04-09T01:02:43.688Z,21.95
2023-04-09T01:05:12.655Z,22.38
2023-04-09T01:08:22.096Z,21.10
2023-04-09T01:11:37.983Z,21.20
2023-04-09T01:14:36.088Z,21.65
2023-04-09T01:17:12.559Z,21.40
2023-04-09T01:20:16.855Z,22.38
2023-04-09T01:23:07.340Z,23.63
2023-04-09T01:26:08.008Z,21.67
2023-04-09T01:28:45.556Z,22.35
2023-04-09T01:31:17.387Z,23.48
2023-04-09T01:33:45.944Z,23.95
2023-04-09T01:36:14.508Z,21.30
2023-04-09T01:38:44.424Z,23.92
2023-04-09T01:41:18.765Z,25.25
2023-04-09T01:43:48.160Z,23.35
2023-04-09T01:46:18.557Z,28.02
2023-04-09T01:48:46.473Z,26.55
2023-04-09T01:51:14.605Z,25.30
2023-04-09T01:53:42.467Z,28.25
2023-04-09T01:56:10.001Z,27.83
2023-04-09T01:58:36.772Z,26.77
2023-04-09T02:01:37.904Z,26.92
2023-04-09T02:04:17.860Z,24.55
2023-04-09T02:07:01.439Z,26.50
2023-04-09T02:09:31.778Z,25.45
2023-04-09T02:12:04.021Z,26.48
2023-04-09T02:14:33.228Z,26.10
2023-04-09T02:17:01.707Z,26.77
2023-04-09T02:19:43.151Z,24.30
2023-04-09T02:22:11.172Z,26.33
2023-04-09T02:24:38.249Z,28.20
2023-04-09T02:27:06.720Z,27.90
2023-04-09T02:29:34.024Z,26.40
2023-04-09T02:32:01.352Z,28.35
2023-04-09T02:34:28.561Z,30.20
2023-04-09T02:36:55.323Z,26.30
2023-04-09T02:39:22.365Z,27.65
2023-04-09T02:41:49.153Z,27.25
2023-04-09T02:44:16.021Z,27.85
2023-04-09T02:46:44.521Z,28.15
2023-04-09T02:49:11.391Z,26.77
2023-04-09T02:51:38.187Z,28.48
2023-04-09T02:54:05.076Z,28.20
2023-04-09T02:56:31.861Z,25.75
2023-04-09T02:58:58.677Z,26.55
2023-04-09T03:01:25.483Z,26.48
2023-04-09T03:03:52.305Z,25.17
2023-04-09T03:06:19.271Z,29.63
2023-04-09T03:08:46.030Z,27.60
2023-04-09T03:11:12.815Z,27.63
2023-04-09T03:13:39.569Z,26.02
2023-04-09T03:16:06.695Z,27.23
2023-04-09T03:18:33.469Z,24.25
2023-04-09T03:21:00.236Z,23.85
2023-04-09T03:23:27.260Z,23.48
2023-04-09T03:26:02.371Z,23.08
2023-04-09T03:28:29.347Z,22.45
2023-04-09T03:30:56.517Z,22.55
2023-04-09T03:33:25.579Z,24.42
2023-04-09T03:35:52.736Z,24.40
2023-04-09T03:38:19.731Z,25.80
2023-04-09T03:40:46.721Z,26.40
2023-04-09T03:43:13.611Z,26.63
2023-04-09T03:45:40.429Z,25.13
2023-04-09T03:48:07.229Z,23.30
2023-04-09T03:50:42.006Z,26.95
2023-04-09T03:53:08.868Z,26.52
2023-04-09T03:55:35.655Z,27.73
2023-04-09T03:58:02.465Z,26.05
2023-04-09T04:00:29.236Z,24.90
2023-04-09T04:02:56.342Z,24.10
2023-04-09T04:05:25.991Z,25.13
2023-04-09T04:07:53.117Z,25.75
2023-04-09T04:10:20.270Z,26.83
2023-04-09T04:12:47.159Z,27.42
2023-04-09T04:15:14.277Z,28.17
2023-04-09T04:17:41.097Z,26.30
2023-04-09T04:20:08.717Z,24.13
2023-04-09T04:22:35.837Z,24.77
2023-04-09T04:25:04.368Z,27.58
2023-04-09T04:27:31.189Z,23.70
2023-04-09T04:29:59.019Z,26.23
2023-04-09T04:32:26.287Z,22.13
2023-04-09T04:34:53.147Z,22.40
2023-04-09T04:37:20.504Z,27.00
2023-04-09T04:39:47.248Z,23.85
2023-04-09T04:42:14.697Z,20.73
2023-04-09T04:44:41.455Z,22.90
2023-04-09T04:47:08.242Z,27.05
2023-04-09T04:49:35.036Z,22.50
2023-04-09T04:52:01.817Z,24.35
2023-04-09T04:54:28.652Z,24.58
2023-04-09T04:56:56.177Z,24.33
2023-04-09T04:59:23.033Z,22.33
2023-04-09T05:01:49.875Z,34.80
2023-04-09T05:04:16.694Z,19.65
2023-04-09T05:06:43.456Z,23.17
2023-04-09T05:09:10.407Z,20.35
2023-04-09T05:11:37.150Z,24.27
2023-04-09T05:14:04.821Z,21.27
2023-04-09T05:16:32.843Z,22.52
2023-04-09T05:19:00.045Z,24.83
2023-04-09T05:21:27.605Z,23.15
2023-04-09T05:23:54.545Z,24.60
2023-04-09T05:26:21.818Z,23.40
2023-04-09T05:28:49.168Z,21.90
2023-04-09T05:31:16.207Z,22.88
2023-04-09T05:33:43.208Z,23.00
2023-04-09T05:36:19.134Z,26.02
2023-04-09T05:38:49.007Z,22.38
2023-04-09T05:41:16.109Z,24.38
2023-04-09T05:43:44.091Z,22.67
2023-04-09T05:46:11.171Z,22.33
2023-04-09T05:48:38.015Z,25.58
2023-04-09T05:51:04.918Z,22.83
2023-04-09T05:53:32.415Z,24.00
2023-04-09T05:55:59.207Z,22.55
2023-04-09T05:58:28.133Z,21.30
2023-04-09T06:00:54.900Z,23.73
2023-04-09T06:03:21.818Z,25.27
2023-04-09T06:05:49.901Z,22.90
2023-04-09T06:08:16.688Z,22.65
2023-04-09T06:10:43.488Z,25.17
2023-04-09T06:13:10.489Z,22.83
2023-04-09T06:15:39.252Z,27.10
2023-04-09T06:18:06.362Z,23.55
2023-04-09T06:20:33.330Z,28.15
2023-04-09T06:23:00.063Z,26.63
2023-04-09T06:25:26.842Z,21.92
2023-04-09T06:27:53.617Z,21.92
2023-04-09T06:30:20.424Z,21.75
2023-04-09T06:32:54.487Z,23.65
2023-04-09T06:35:22.689Z,23.40
2023-04-09T06:37:49.437Z,25.58
2023-04-09T06:40:16.414Z,22.75
2023-04-09T06:42:43.218Z,23.48
2023-04-09T06:45:10.399Z,23.33
2023-04-09T06:47:37.340Z,22.65
2023-04-09T06:50:05.879Z,23.52
2023-04-09T06:52:32.645Z,23.15
2023-04-09T06:54:59.579Z,22.48
2023-04-09T06:57:27.216Z,25.05
2023-04-09T06:59:54.019Z,23.75
2023-04-09T07:02:20.931Z,23.73
2023-04-09T07:04:48.041Z,25.83
2023-04-09T07:07:15.395Z,24.65
2023-04-09T07:09:43.033Z,21.70
2023-04-09T07:12:09.917Z,24.35
2023-04-09T07:14:36.734Z,25.00
2023-04-09T07:17:03.599Z,22.02
2023-04-09T07:19:31.014Z,25.00
2023-04-09T07:21:57.781Z,24.02
2023-04-09T07:24:24.510Z,25.38
2023-04-09T07:26:52.564Z,24.92
2023-04-09T07:29:20.732Z,25.02
2023-04-09T07:31:47.706Z,24.08
2023-04-09T07:34:14.594Z,24.95
2023-04-09T07:36:42.923Z,25.58
2023-04-09T07:39:09.763Z,24.15
2023-04-09T07:41:37.525Z,24.38
2023-04-09T07:44:06.233Z,22.88
2023-04-09T07:46:33.258Z,23.25
2023-04-09T07:49:00.127Z,26.88
2023-04-09T07:51:27.690Z,24.40
2023-04-09T07:53:54.459Z,23.15
2023-04-09T07:56:22.337Z,22.15
2023-04-09T07:58:50.739Z,24.50
2023-04-09T08:01:17.772Z,23.73
2023-04-09T08:03:44.640Z,24.17
2023-04-09T08:06:11.671Z,25.90
2023-04-09T08:08:38.433Z,24.58
2023-04-09T08:11:05.735Z,23.58
2023-04-09T08:13:32.556Z,27.55
2023-04-09T08:16:02.676Z,23.98
2023-04-09T08:18:29.714Z,22.30
2023-04-09T08:20:57.391Z,24.70
2023-04-09T08:23:24.156Z,23.35
2023-04-09T08:25:50.923Z,25.17
2023-04-09T08:28:17.680Z,20.92
2023-04-09T08:30:44.670Z,23.42
2023-04-09T08:33:11.494Z,25.38
2023-04-09T08:35:40.378Z,23.80
2023-04-09T08:38:07.157Z,25.58
2023-04-09T08:40:37.556Z,24.77
2023-04-09T08:43:09.640Z,24.73
2023-04-09T08:45:36.592Z,24.05
2023-04-09T08:48:05.657Z,25.60
2023-04-09T08:50:36.215Z,22.52
2023-04-09T08:53:05.819Z,26.50
2023-04-09T08:55:37.262Z,24.08
2023-04-09T08:58:13.701Z,23.55
2023-04-09T09:00:40.779Z,23.85
2023-04-09T09:03:15.921Z,22.90
2023-04-09T09:05:45.721Z,25.35
2023-04-09T09:08:23.752Z,25.23
2023-04-09T09:10:50.603Z,26.77
2023-04-09T09:13:23.536Z,26.67
2023-04-09T09:15:56.348Z,24.17
2023-04-09T09:18:44.402Z,24.77
2023-04-09T09:21:19.436Z,27.23
2023-04-09T09:23:48.459Z,23.48
2023-04-09T09:26:21.804Z,25.30
2023-04-09T09:28:49.456Z,23.63
2023-04-09T09:31:18.551Z,24.63
2023-04-09T09:33:46.725Z,23.60
2023-04-09T09:36:14.413Z,22.88
2023-04-09T09:38:57.027Z,27.80
2023-04-09T09:41:25.999Z,23.38
2023-04-09T09:43:52.881Z,24.40
2023-04-09T09:46:22.296Z,27.00
2023-04-09T09:48:49.812Z,26.25
2023-04-09T09:51:16.823Z,21.58
2023-04-09T09:53:53.452Z,26.45
2023-04-09T09:56:32.643Z,22.58
2023-04-09T09:59:08.637Z,23.83
2023-04-09T10:01:37.900Z,21.45
2023-04-09T10:04:07.265Z,21.48
2023-04-09T10:06:34.612Z,21.85
2023-04-09T10:09:05.124Z,22.48
2023-04-09T10:11:35.290Z,21.13
2023-04-09T10:14:03.047Z,22.05
2023-04-09T10:16:31.142Z,22.00
2023-04-09T10:18:59.785Z,23.17
2023-04-09T10:21:53.709Z,19.98
2023-04-09T10:24:21.510Z,22.45
2023-04-09T10:26:48.957Z,19.65
2023-04-09T10:29:16.878Z,22.90
2023-04-09T10:32:05.044Z,19.85
2023-04-09T10:34:38.530Z,19.65
2023-04-09T10:37:14.939Z,17.73
2023-04-09T10:39:47.437Z,20.17
2023-04-09T10:42:30.835Z,18.77
2023-04-09T10:45:14.977Z,19.33
2023-04-09T10:50:30.798Z,18.60
2023-04-09T10:53:00.423Z,17.17
2023-04-09T10:55:38.609Z,18.75
2023-04-09T10:58:13.203Z,19.77
2023-04-09T11:00:44.569Z,18.40
2023-04-09T11:03:30.896Z,19.42
2023-04-09T11:06:10.456Z,17.30
2023-04-09T11:08:38.694Z,18.48
2023-04-09T11:11:05.918Z,19.58
2023-04-09T11:13:34.105Z,20.52
2023-04-09T11:16:03.400Z,23.88
2023-04-09T11:18:30.998Z,20.95
2023-04-09T11:21:04.354Z,20.02
2023-04-09T11:23:33.126Z,19.13
2023-04-09T11:25:59.963Z,19.35
2023-04-09T11:28:27.809Z,17.85
2023-04-09T11:30:54.918Z,18.83
2023-04-09T11:33:22.341Z,19.08
2023-04-09T11:35:49.316Z,17.85
2023-04-09T11:38:16.290Z,17.73
2023-04-09T11:40:48.670Z,21.48
2023-04-09T11:43:17.172Z,19.80
2023-04-09T11:45:45.005Z,18.00
2023-04-09T11:48:12.909Z,18.60
2023-04-09T11:50:40.127Z,18.73
2023-04-09T11:53:21.283Z,18.00
2023-04-09T11:55:53.266Z,19.25
2023-04-09T11:58:24.560Z,20.25
2023-04-09T12:00:58.580Z,16.27
2023-04-09T12:03:33.295Z,18.88
2023-04-09T12:06:03.810Z,16.65
2023-04-09T12:08:31.435Z,17.05
2023-04-09T12:11:12.545Z,15.70
2023-04-09T12:13:44.467Z,20.15
2023-04-09T12:16:21.210Z,16.05
2023-04-09T12:18:50.593Z,16.95
2023-04-09T12:21:19.174Z,17.90
2023-04-09T12:23:46.117Z,18.15
2023-04-09T12:26:13.112Z,18.80
2023-04-09T12:28:39.884Z,19.58
2023-04-09T12:31:10.811Z,17.58
2023-04-09T12:33:38.915Z,18.70
2023-04-09T12:36:05.809Z,20.75
2023-04-09T12:38:32.730Z,20.02
2023-04-09T12:40:59.531Z,16.27
2023-04-09T12:43:26.433Z,16.13
2023-04-09T12:45:53.399Z,16.60
2023-04-09T12:48:20.180Z,16.77
2023-04-09T12:50:46.998Z,15.73
2023-04-09T12:53:13.927Z,17.25
2023-04-09T12:55:42.736Z,14.70
2023-04-09T12:58:09.828Z,18.85
2023-04-09T13:00:36.631Z,17.52
2023-04-09T13:03:03.484Z,18.45
2023-04-09T13:05:32.491Z,17.77
2023-04-09T13:08:00.436Z,17.92
2023-04-09T13:10:27.174Z,19.65
2023-04-09T13:12:53.900Z,18.08
2023-04-09T13:15:20.727Z,17.15
2023-04-09T13:17:47.555Z,20.25
2023-04-09T13:20:14.627Z,17.85
2023-04-09T13:22:41.407Z,17.67
2023-04-09T13:25:10.569Z,18.25
2023-04-09T13:27:37.315Z,17.42
2023-04-09T13:30:04.925Z,16.80
2023-04-09T13:32:31.732Z,15.70
2023-04-09T13:34:58.707Z,17.38
2023-04-09T13:37:26.071Z,17.33
2023-04-09T13:39:52.956Z,18.42
2023-04-09T13:42:19.700Z,18.08
2023-04-09T13:44:46.671Z,19.42
2023-04-09T13:47:15.947Z,18.95
2023-04-09T13:49:43.797Z,16.95
2023-04-09T13:52:11.665Z,16.73
2023-04-09T13:54:38.469Z,17.98
2023-04-09T13:57:05.273Z,18.27
2023-04-09T13:59:32.160Z,18.38
2023-04-09T14:01:59.020Z,18.25
2023-04-09T14:04:26.077Z,17.35
2023-04-09T14:06:52.917Z,16.27
2023-04-09T14:09:19.692Z,15.25
2023-04-09T14:11:46.410Z,16.00
2023-04-09T14:14:14.231Z,16.20
2023-04-09T14:16:41.222Z,16.92
2023-04-09T14:19:09.992Z,14.30
2023-04-09T14:21:36.735Z,16.73
2023-04-09T14:24:03.625Z,17.13
2023-04-09T14:26:30.636Z,17.05
2023-04-09T14:28:57.405Z,14.13
2023-04-09T14:31:24.171Z,16.63
2023-04-09T14:33:51.074Z,17.58
2023-04-09T14:36:18.072Z,19.02
2023-04-09T14:38:44.825Z,17.95
2023-04-09T14:41:11.702Z,15.68
2023-04-09T14:43:39.681Z,17.63
2023-04-09T14:46:11.465Z,15.00
2023-04-09T14:48:39.794Z,16.02
2023-04-09T14:51:08.882Z,15.85
2023-04-09T14:53:36.315Z,14.43
2023-04-09T14:56:03.129Z,14.30
2023-04-09T14:58:29.957Z,16.92
2023-04-09T15:00:56.729Z,15.18
2023-04-09T15:03:23.858Z,13.57
2023-04-09T15:05:50.804Z,16.08
2023-04-09T15:08:17.535Z,15.52
2023-04-09T15:10:44.280Z,13.75
2023-04-09T15:13:10.999Z,16.45
2023-04-09T15:15:40.759Z,15.18
2023-04-09T15:18:08.588Z,14.23
2023-04-09T15:20:43.443Z,16.38
2023-04-09T15:23:11.040Z,15.15
2023-04-09T15:25:38.372Z,15.30
2023-04-09T15:28:05.992Z,14.45
2023-04-09T15:30:33.190Z,14.30
2023-04-09T15:33:00.045Z,14.18
2023-04-09T15:35:29.310Z,15.50
2023-04-09T15:37:57.083Z,16.65
2023-04-09T15:40:23.913Z,14.98
2023-04-09T15:42:51.006Z,15.27
2023-04-09T15:45:18.114Z,17.60
2023-04-09T15:47:46.165Z,14.65
2023-04-09T15:50:14.511Z,14.50
2023-04-09T15:52:41.614Z,13.80
2023-04-09T15:55:09.123Z,15.30
2023-04-09T15:57:35.907Z,15.15
2023-04-09T16:00:02.830Z,14.18
2023-04-09T16:02:29.715Z,13.68
2023-04-09T16:04:56.662Z,14.68
2023-04-09T16:07:23.532Z,12.88
2023-04-09T16:09:50.369Z,14.68
2023-04-09T16:12:17.149Z,13.15
2023-04-09T16:14:44.544Z,13.57
2023-04-09T16:17:11.425Z,11.65
2023-04-09T16:19:38.566Z,13.10
2023-04-09T16:22:06.511Z,14.77
2023-04-09T16:24:33.314Z,11.90
2023-04-09T16:27:00.035Z,11.90
2023-04-09T16:29:27.119Z,13.02
2023-04-09T16:31:53.981Z,11.57
2023-04-09T16:34:20.925Z,12.82
2023-04-09T16:36:47.693Z,11.55
2023-04-09T16:39:15.477Z,11.00
2023-04-09T16:41:43.466Z,10.32
2023-04-09T16:44:10.371Z,11.60
2023-04-09T16:46:37.094Z,10.63
2023-04-09T16:49:03.820Z,10.73
2023-04-09T16:51:30.715Z,9.95
2023-04-09T16:53:57.714Z,10.43
2023-04-09T16:56:24.473Z,9.60
2023-04-09T16:58:51.592Z,11.63
2023-04-09T17:01:18.551Z,10.48
2023-04-09T17:03:48.038Z,11.18
2023-04-09T17:06:14.962Z,11.98
2023-04-09T17:08:42.136Z,13.57
2023-04-09T17:11:08.877Z,15.45
2023-04-09T17:13:36.123Z,12.13
2023-04-09T17:16:03.295Z,11.23
2023-04-09T17:18:30.256Z,11.18
2023-04-09T17:20:57.079Z,12.05
2023-04-09T17:23:23.851Z,12.38
2023-04-09T17:25:50.633Z,13.02
2023-04-09T17:28:19.084Z,12.95
2023-04-09T17:30:46.162Z,13.13
2023-04-09T17:33:13.322Z,12.55
2023-04-09T17:35:41.919Z,12.60
2023-04-09T17:38:08.711Z,13.10
2023-04-09T17:40:35.478Z,14.40
2023-04-09T17:43:02.252Z,12.20
2023-04-09T17:45:28.972Z,13.82
2023-04-09T17:47:55.926Z,14.13
2023-04-09T17:50:22.767Z,13.98
2023-04-09T17:52:50.579Z,12.63
2023-04-09T17:55:17.688Z,12.98
2023-04-09T17:57:44.569Z,13.77
2023-04-09T18:00:12.009Z,12.63
2023-04-09T18:02:39.044Z,13.07
2023-04-09T18:05:07.249Z,14.27
2023-04-09T18:07:34.522Z,12.77
2023-04-09T18:10:03.319Z,12.93
2023-04-09T18:12:30.463Z,13.25
2023-04-09T18:14:57.279Z,12.43
2023-04-09T18:17:26.099Z,14.55
2023-04-09T18:19:54.752Z,13.18
2023-04-09T18:22:21.797Z,14.10
2023-04-09T18:24:48.728Z,13.70
2023-04-09T18:27:16.253Z,13.50
2023-04-09T18:29:43.009Z,16.00
2023-04-09T18:32:09.871Z,15.43
2023-04-09T18:34:39.172Z,15.13
2023-04-09T18:37:06.223Z,16.98
2023-04-09T18:39:34.490Z,14.95
2023-04-09T18:42:01.634Z,15.18
2023-04-09T18:44:28.685Z,16.65
2023-04-09T18:46:55.628Z,16.33
2023-04-09T18:49:22.434Z,15.32
2023-04-09T18:51:49.181Z,18.70
2023-04-09T18:54:16.108Z,18.90
2023-04-09T18:56:45.322Z,15.82
2023-04-09T18:59:13.182Z,15.30
2023-04-09T19:01:40.460Z,17.30
2023-04-09T19:04:07.627Z,17.77
2023-04-09T19:06:36.011Z,16.20
2023-04-09T19:09:04.480Z,18.08
2023-04-09T19:11:31.292Z,17.08
2023-04-09T19:13:58.017Z,17.08
2023-04-09T19:16:24.790Z,20.33
2023-04-09T19:18:51.835Z,16.70
2023-04-09T19:21:18.688Z,17.65
2023-04-09T19:23:45.814Z,17.50
2023-04-09T19:26:12.639Z,16.50
2023-04-09T19:28:39.425Z,16.85
2023-04-09T19:31:08.335Z,17.40
2023-04-09T19:33:35.251Z,17.42
2023-04-09T19:36:02.083Z,18.08
2023-04-09T19:38:28.900Z,16.27
2023-04-09T19:40:56.002Z,17.60
2023-04-09T19:43:22.923Z,17.40
2023-04-09T19:45:49.657Z,16.45
2023-04-09T19:48:16.826Z,17.27
2023-04-09T19:50:45.247Z,18.80
2023-04-09T19:53:11.976Z,17.83
2023-04-09T19:55:39.073Z,16.95
2023-04-09T19:58:06.842Z,18.40
2023-04-09T20:00:34.540Z,17.55
2023-04-09T20:03:02.933Z,18.75
2023-04-09T20:05:29.986Z,16.45
2023-04-09T20:07:56.727Z,19.13
2023-04-09T20:10:23.540Z,19.27
2023-04-09T20:12:51.213Z,19.15
2023-04-09T20:15:21.383Z,19.08
2023-04-09T20:17:49.415Z,17.65
2023-04-09T20:20:19.909Z,18.30
2023-04-09T20:22:55.513Z,19.08
2023-04-09T20:25:24.047Z,18.42
2023-04-09T20:27:54.075Z,17.85
2023-04-09T20:30:21.268Z,17.38
2023-04-09T20:32:48.959Z,19.70
2023-04-09T20:35:15.935Z,18.88
2023-04-09T20:37:42.808Z,19.95
2023-04-09T20:40:11.660Z,16.98
2023-04-09T20:42:41.848Z,18.95
2023-04-09T20:45:09.591Z,18.00
2023-04-09T20:47:36.882Z,17.10
2023-04-09T20:50:03.960Z,18.40
2023-04-09T20:52:30.824Z,16.90
2023-04-09T20:54:58.589Z,16.33
2023-04-09T20:57:25.536Z,18.75
2023-04-09T20:59:53.625Z,17.33
2023-04-09T21:02:21.202Z,18.05
2023-04-09T21:04:48.181Z,17.42
2023-04-09T21:07:15.552Z,19.30
2023-04-09T21:09:42.254Z,17.48
2023-04-09T21:12:09.138Z,18.35
2023-04-09T21:14:35.890Z,16.83
2023-04-09T21:17:02.722Z,18.52
2023-04-09T21:19:29.592Z,16.63
2023-04-09T21:21:56.439Z,18.60
2023-04-09T21:24:23.466Z,19.25
2023-04-09T21:26:52.276Z,17.88
2023-04-09T21:29:21.176Z,17.10
2023-04-09T21:31:49.049Z,19.70
2023-04-09T21:34:16.410Z,17.27
2023-04-09T21:36:44.984Z,16.02
2023-04-09T21:39:12.516Z,17.17
2023-04-09T21:41:39.472Z,18.52
2023-04-09T21:44:08.303Z,18.55
2023-04-09T21:46:41.486Z,18.80
2023-04-09T21:49:08.333Z,20.57
2023-04-09T21:51:36.055Z,17.80
2023-04-09T21:54:10.125Z,17.13
2023-04-09T21:56:37.218Z,16.65
2023-04-09T21:59:05.309Z,17.35
2023-04-09T22:01:34.464Z,17.15
2023-04-09T22:04:02.094Z,16.73
2023-04-09T22:06:29.227Z,16.38
2023-04-09T22:08:57.406Z,15.45
2023-04-09T22:11:27.527Z,16.60
2023-04-09T22:13:56.531Z,14.95
2023-04-09T22:16:24.207Z,14.20
2023-04-09T22:18:51.634Z,17.77
2023-04-09T22:21:18.699Z,15.02
2023-04-09T22:23:45.550Z,16.10
2023-04-09T22:26:12.378Z,16.35
2023-04-09T22:28:39.425Z,15.32
2023-04-09T22:31:06.617Z,14.45
2023-04-09T22:33:33.464Z,13.80
2023-04-09T22:36:00.339Z,16.50
2023-04-09T22:38:27.705Z,16.63
2023-04-09T22:40:54.765Z,14.93
2023-04-09T22:43:21.635Z,13.85
2023-04-09T22:45:53.297Z,13.52
2023-04-09T22:48:23.159Z,11.23
2023-04-09T22:50:51.090Z,12.38
2023-04-09T22:53:21.734Z,11.80
2023-04-09T22:55:54.485Z,15.57
2023-04-09T22:58:21.384Z,13.10
2023-04-09T23:00:50.901Z,14.27
2023-04-09T23:03:17.801Z,13.43
2023-04-09T23:05:45.301Z,11.98
2023-04-09T23:08:12.146Z,12.70
2023-04-09T23:10:38.915Z,11.32
2023-04-09T23:13:06.042Z,12.63
2023-04-09T23:15:32.911Z,13.70
2023-04-09T23:18:00.356Z,13.77
2023-04-09T23:20:27.515Z,16.25
2023-04-09T23:22:54.309Z,15.50
2023-04-09T23:25:22.443Z,13.55
2023-04-09T23:27:49.345Z,13.05
2023-04-09T23:30:18.717Z,12.70
2023-04-09T23:32:46.063Z,14.98
2023-04-09T23:35:13.873Z,11.82
2023-04-09T23:37:42.588Z,13.13
2023-04-09T23:40:11.182Z,10.60
2023-04-09T23:42:38.245Z,12.38
2023-04-09T23:45:06.651Z,11.38
2023-04-09T23:47:37.300Z,11.63
2023-04-09T23:50:06.829Z,12.52
2023-04-09T23:52:36.458Z,11.68
2023-04-09T23:55:05.323Z,10.27
2023-04-09T23:57:32.074Z,10.38
2023-04-09T23:59:58.861Z,11.00
